Airfield :
LOGIN :

Register | Disclaimer

   EN    FR    IT 

 










Legend :    VFR   Marginal VFR   IFR   Intensive IFR   Very Intensive IFR
Visi :
Ceiling :
>= 8 km
>= 3000ft
5 to 8 km
1000 to 3000 ft
1500m to 5 km
500 to 1000 ft
800 to 1500m
200 to 500 ft
< 800m
< 200 ft
Symbols :   Thunderstorms  Fog  Heavy snow  Heavy precipitations  Wind > 20 kt
SIGMETs :     Misc.  Thunderstorms  Icing  Turbulence  Mountain Waves  Volcanic Ashes






- Airport Elevation : 404 ft
- IATA code : WRO


EPWR - Wroclaw

CURRENT METAR :
  • 201200Z 11003KT CAVOK 12/07 Q1017

EXPIRED METARs :
  • 201130Z 12004KT CAVOK 11/06 Q1017
  • 201100Z 13007KT CAVOK 10/06 Q1018
  • 201030Z 14005KT CAVOK 11/06 Q1018
  • 201000Z 13005KT CAVOK 10/06 Q1018
  • 200930Z 11004KT CAVOK 09/05 Q1018

TAF TAF EPWR
Valid from the 20 at 12:00 until the 21 at 12:00 UTC


201130Z 2012/2112 11007KT CAVOK
BECMG 2017/2020 3000 BR BKN005
TEMPO 2020/2109 0400 DZ FG OVC001
BECMG 2109/2112 7000 SCT005



MET'MAP, your aeronautical weather chart ! - Copyright ORBIFLY December 2007 - Disclaimer

ORBIFLY MET'MAP TEAM :

Programming & Development : Alexandra Zaïnal
Concept & Development : Baudouin d'Aumeries
Co-Development & Prog : Marc-Olivier Méhu
Technical & hardware support : Manuel Goepfert

Contact : metmap@orbifly.com




SOURCES & CREDITS :

   NOAA